createdAt,value
2018-03-02T00:01:13.478Z,-9.40
2018-03-02T00:03:43.367Z,-9.30
2018-03-02T00:06:12.459Z,-9.30
2018-03-02T00:08:41.586Z,-9.40
2018-03-02T00:11:10.722Z,-9.30
2018-03-02T00:13:39.817Z,-9.30
2018-03-02T00:16:09.701Z,-9.50
2018-03-02T00:18:38.790Z,-9.50
2018-03-02T00:21:08.646Z,-9.50
2018-03-02T00:23:37.767Z,-9.50
2018-03-02T00:26:06.902Z,-9.50
2018-03-02T00:28:35.994Z,-9.40
2018-03-02T00:31:05.084Z,-9.40
2018-03-02T00:33:34.322Z,-9.50
2018-03-02T00:36:03.771Z,-9.50
2018-03-02T00:38:32.910Z,-9.50
2018-03-02T00:41:02.774Z,-9.40
2018-03-02T00:43:31.865Z,-9.50
2018-03-02T00:46:00.958Z,-9.50
2018-03-02T00:48:30.945Z,-9.50
2018-03-02T00:51:00.078Z,-9.50
2018-03-02T00:53:29.166Z,-9.60
2018-03-02T00:55:58.265Z,-9.60
2018-03-02T00:58:27.377Z,-9.60
2018-03-02T01:00:56.517Z,-9.70
2018-03-02T01:03:25.613Z,-9.70
2018-03-02T01:05:54.802Z,-9.70
2018-03-02T01:08:23.889Z,-9.70
2018-03-02T01:10:53.014Z,-9.80
2018-03-02T01:13:22.128Z,-9.80
2018-03-02T01:15:51.246Z,-9.90
2018-03-02T01:18:20.334Z,-9.90
2018-03-02T01:20:49.421Z,-9.90
2018-03-02T01:23:19.526Z,-9.90
2018-03-02T01:25:48.833Z,-9.90
2018-03-02T01:28:17.953Z,-10.00
2018-03-02T01:30:47.078Z,-10.00
2018-03-02T01:33:17.018Z,-10.10
2018-03-02T01:35:46.890Z,-10.10
2018-03-02T01:38:15.996Z,-10.10
2018-03-02T01:40:45.102Z,-10.10
2018-03-02T01:43:14.201Z,-10.10
2018-03-02T01:45:43.341Z,-10.00
2018-03-02T01:48:12.554Z,-10.00
2018-03-02T01:50:41.680Z,-10.00
2018-03-02T01:53:10.789Z,-9.90
2018-03-02T01:55:39.878Z,-9.90
2018-03-02T01:58:09.162Z,-9.90
2018-03-02T02:00:39.017Z,-10.00
2018-03-02T02:03:08.138Z,-10.00
2018-03-02T02:05:37.301Z,-10.00
2018-03-02T02:08:07.157Z,-10.00
2018-03-02T02:10:36.263Z,-10.00
2018-03-02T02:13:05.602Z,-10.10
2018-03-02T02:15:34.698Z,-10.00
2018-03-02T02:18:03.827Z,-10.10
2018-03-02T02:20:32.934Z,-10.10
2018-03-02T02:23:02.031Z,-10.10
2018-03-02T02:25:31.190Z,-10.20
2018-03-02T02:28:00.290Z,-10.30
2018-03-02T02:30:29.450Z,-10.30
2018-03-02T02:32:58.582Z,-10.30
2018-03-02T02:35:27.687Z,-10.40
2018-03-02T02:37:56.781Z,-10.40
2018-03-02T02:40:25.875Z,-10.50
2018-03-02T02:42:55.781Z,-10.50
2018-03-02T02:45:24.897Z,-10.50
2018-03-02T02:47:54.787Z,-10.50
2018-03-02T02:50:24.154Z,-10.60
2018-03-02T02:52:54.054Z,-10.50
2018-03-02T02:55:23.149Z,-10.60
2018-03-02T02:57:52.245Z,-10.50
2018-03-02T03:00:21.340Z,-10.50
2018-03-02T03:02:50.501Z,-10.50
2018-03-02T03:05:19.594Z,-10.50
2018-03-02T03:07:48.689Z,-10.50
2018-03-02T03:10:17.805Z,-10.60
2018-03-02T03:12:46.924Z,-10.60
2018-03-02T03:15:16.094Z,-10.60
2018-03-02T03:17:45.190Z,-10.60
2018-03-02T03:20:15.046Z,-10.60
2018-03-02T03:22:44.137Z,-10.60
2018-03-02T03:25:13.998Z,-10.60
2018-03-02T03:27:43.090Z,-10.60
2018-03-02T03:30:12.229Z,-10.60
2018-03-02T03:32:41.323Z,-10.60
2018-03-02T03:35:10.417Z,-10.60
2018-03-02T03:37:39.517Z,-10.60
2018-03-02T03:40:09.589Z,-10.60
2018-03-02T03:42:38.686Z,-10.60
2018-03-02T03:45:07.831Z,-10.60
2018-03-02T03:47:37.005Z,-10.60
2018-03-02T03:50:06.155Z,-10.60
2018-03-02T03:52:35.248Z,-10.60
2018-03-02T03:55:04.377Z,-10.60
2018-03-02T03:57:33.525Z,-10.70
2018-03-02T04:00:03.507Z,-10.80
2018-03-02T04:02:32.605Z,-10.80
2018-03-02T04:05:01.702Z,-10.80
2018-03-02T04:07:30.807Z,-10.90
2018-03-02T04:09:59.956Z,-10.90
2018-03-02T04:12:29.051Z,-10.90
2018-03-02T04:14:58.150Z,-10.90
2018-03-02T04:17:27.246Z,-10.90
2018-03-02T04:19:56.341Z,-10.90
2018-03-02T04:22:26.225Z,-10.90
2018-03-02T04:24:55.377Z,-10.90
2018-03-02T04:27:25.258Z,-10.80
2018-03-02T04:29:54.357Z,-10.80
2018-03-02T04:32:23.495Z,-10.80
2018-03-02T04:34:52.627Z,-10.90
2018-03-02T04:37:21.723Z,-10.90
2018-03-02T04:39:50.825Z,-10.90
2018-03-02T04:42:20.017Z,-11.00
2018-03-02T04:44:49.114Z,-10.90
2018-03-02T04:47:18.273Z,-10.90
2018-03-02T04:49:47.370Z,-11.00
2018-03-02T04:52:16.518Z,-11.00
2018-03-02T04:54:46.353Z,-11.00
2018-03-02T04:57:15.608Z,-11.00
2018-03-02T04:59:44.698Z,-11.20
2018-03-02T05:02:13.844Z,-11.20
2018-03-02T05:04:42.941Z,-11.20
2018-03-02T05:07:12.142Z,-11.20
2018-03-02T05:09:41.233Z,-11.20
2018-03-02T05:12:10.358Z,-11.10
2018-03-02T05:14:39.453Z,-11.10
2018-03-02T05:17:08.622Z,-11.20
2018-03-02T05:19:37.781Z,-11.20
2018-03-02T05:22:06.909Z,-11.20
2018-03-02T05:24:36.006Z,-11.20
2018-03-02T05:27:05.097Z,-11.20
2018-03-02T05:29:34.225Z,-11.20
2018-03-02T05:32:03.325Z,-11.20
2018-03-02T05:34:32.461Z,-11.20
2018-03-02T05:37:01.561Z,-11.30
2018-03-02T05:39:30.661Z,-11.30
2018-03-02T05:41:59.814Z,-11.30
2018-03-02T05:44:28.934Z,-11.30
2018-03-02T05:46:58.025Z,-11.40
2018-03-02T05:49:27.193Z,-11.30
2018-03-02T05:51:56.289Z,-11.30
2018-03-02T05:54:26.146Z,-11.30
2018-03-02T05:56:55.342Z,-11.40
2018-03-02T05:59:24.433Z,-11.30
2018-03-02T06:01:54.297Z,-11.30
2018-03-02T06:04:23.389Z,-11.30
2018-03-02T06:06:52.525Z,-11.30
2018-03-02T06:09:21.617Z,-11.30
2018-03-02T06:11:50.748Z,-11.30
2018-03-02T06:14:19.965Z,-11.40
2018-03-02T06:16:49.057Z,-11.40
2018-03-02T06:19:18.150Z,-11.40
2018-03-02T06:21:47.245Z,-11.40
2018-03-02T06:24:17.105Z,-11.30
2018-03-02T06:26:46.205Z,-11.30
2018-03-02T06:29:15.333Z,-11.30
2018-03-02T06:31:44.430Z,-11.40
2018-03-02T06:34:13.549Z,-11.20
2018-03-02T06:36:42.641Z,-11.30
2018-03-02T06:39:12.565Z,-11.30
2018-03-02T06:41:42.454Z,-11.20
2018-03-02T06:44:11.577Z,-11.20
2018-03-02T06:46:40.666Z,-11.20
